Aktualne dane pomiarowe

Uwaga, wersja testowa! Automatyczne pobieranie danych za pomocą narzędzi lub skryptów to umożliwiających jest zabronione.

Dane meteo z obszaru Polski uzyskane na podstawie depesz SYNOP pobieranych co godzinę z NWS. Najedź myszką na symbol przedstawiony w tabeli, aby uzyskać informacje co do jego znaczenia. Prosimy pamiętać, że to testowa wersja strony, która jeszcze nie jest ukończona. Stworzono również jest krótki FAQ dotyczący korzystania z tej podstrony Anomalie temperatury w chwili obecnej odniesione są do okresu referencyjnego 1951-2016. Okres ten będzie później zmieniony na 1981-2010. Kliknij ikonę aby pobrać plik CSV. Kliknij ikonę aby wygenerować mapę synoptyczną dla danego terminu.

Wybierz Datę:    

        

Opole (12530)

Dane terminowe dla wybranej stacji. Kliknij datę, aby otrzymać dane z tego terminu dla wszystkich stacji.

TemperaturaZachmurzenieWiatrCiśnienieOpadyPogoda
 Data t td wb tx tn tg rh  Nt Nl Cl Cm Ch ws wd g1 g2 wx mslp ppp ch 24h 12h t ww ww w1 w2  
2019-07-07 23:00:00 11.9 6.7 8.8--- 7020.0wx-wx1wx--11012.7 993.0 1.2---------
2019-07-07 22:00:00 13.0 6.2 9.1--- 6320.0wx-wx2wx--21012.2 992.6 1.3---------
2019-07-07 21:00:00 14.6 6.0 9.8--- 5620.0wx-wx2wx--21011.8 992.3 1.8---------
2019-07-07 20:00:00 16.3 5.6 10.4--- 4920.0wx-wx2wx--21011.2 991.8 1.8---------
2019-07-07 19:00:00 17.0 5.1 10.6--- 4520.0wx-wx2wx---1010.6 991.3 2.3---------
2019-07-07 18:00:00 18.7 5.6 11.6 21.8 13.9- 4220.0wxwxwxwx1wx-911009.7 990.5 1.2- 0.012------
2019-07-07 17:00:00 19.9 6.0 12.3--- 4030.0wxwxwxwxwx2wx---1009.1 990.0 0.1---------
2019-07-07 16:00:00 21.4 6.6 13.2--- 3830.0wxwxwxwxwx3wx---1008.0 989.0 -1.2---------
2019-07-07 15:00:00 20.6 5.9 12.6--- 3830.0wxwxwxwxwx3wx-931008.3 989.3 -1.2---------
2019-07-07 14:00:00 19.2 8.9 13.2--- 5130.0wxwxwxwx4wx-941009.0 989.9 -0.6---------
2019-07-07 13:00:00 19.4 8.2 13.0--- 4830.0wxwxwxwx3wx8--1009.3 990.2 -0.4---------
2019-07-07 12:00:00 17.7 8.1 12.1--- 5330.0wxwxwx4wx-1041009.8 990.5 0.1- 0.06------
2019-07-07 11:00:00 16.9 8.9 12.1--- 5930.0wxwxwx5wx---1009.8 990.5 0.7---------
2019-07-07 10:00:00 14.9 10.0 11.8--- 7330.0wxwxwx4wx--41010.0 990.6 1.4---------
2019-07-07 09:00:00 14.1 10.6 11.8--- 7930.0wxwxwx3wx-1031009.9 990.4 1.8---------
2019-07-07 08:00:00 14.5 10.4 11.9--- 7630.0wxwxwx3wx-1031009.3 989.8 1.5---------
2019-07-07 07:00:00 16.4 12.8 14.0--- 7925.0wxwxwx2wx7721008.5 989.2 1.5---------
2019-07-07 06:00:00 17.2 14.0 15.0 27.4 16.5 16 8125.0wxwxwx3wx--31007.8 988.6 0.8- 0.012----- 10.4
2019-07-07 05:00:00 17.3 13.7 14.9--- 7920.0wxwxwxwx2wx--21007.5 988.3 0.7---------
2019-07-07 04:00:00 16.8 13.0 14.3--- 7820.0wx-wx1wx--11007.0 987.7 -0.1---------
2019-07-07 03:00:00 16.5 12.9 14.1--- 7920.0wx-wx1wx--11007.1 987.8 -0.3---------
2019-07-07 02:00:00 17.5 12.7 14.4--- 7320.0wx-wx1wx--11006.8 987.6 -0.4---------
2019-07-07 01:00:00 17.7 12.3 14.2--- 7120.0wx-wx1wx---1007.0 987.8 0.4---------
2019-07-07 00:00:00 18.1 12.2 14.3--- 6820.0wx-wx1wx--11007.3 988.1 1.2- 0.06------
2019-07-06 23:00:00 18.8 12.2 14.6--- 6620.0wx-wx1wx--11007.1 988.0 1.7---------
2019-07-06 22:00:00 20.1 11.7 14.9--- 5820.0wx-wx2wx--21006.4 987.4 0.9---------
2019-07-06 21:00:00 22.5 11.0 15.6--- 4820.0wx-wx2wx--21005.8 986.9 0.4---------
2019-07-06 20:00:00 24.2 9.8 15.8--- 4020.0wxwxwxwx1wx--11005.0 986.3 -0.3---------
2019-07-06 19:00:00 25.6 9.5 16.2--- 3630.0wx-wx1wx--11005.2 986.5 -0.4---------
2019-07-06 18:00:00 27.4 9.8 17.1 29.6 20.1- 3330.0wx-wx2wx-1121005.0 986.5 -0.9- 0.012------
2019-07-06 17:00:00 28.8 9.1 17.3--- 2930.0wx-wxwx3wx--31005.1 986.6 -1.3---------
2019-07-06 16:00:00 28.9 8.1 16.9--- 2730.0wx-wxwx5wx-1051005.3 986.9 -1.3---------
2019-07-06 15:00:00 28.6 7.3 16.5--- 2630.0wxwxwxwx5wx111151005.9 987.4 -1.6---------
2019-07-06 14:00:00 28.3 8.6 16.9--- 2930.0wxwxwxwx5wx-1051006.4 987.9 -1.8---------
2019-07-06 13:00:00 28.7 8.5 17.0--- 2830.0wxwxwxwx5wx-1051006.7 988.2 -2.5---------
2019-07-06 12:00:00 27.5 8.5 16.5--- 3030.0wxwxwxwx4wx91041007.6 989.0 -2.4- 0.06------
2019-07-06 11:00:00 26.7 10.1 16.9--- 3530.0wxwxwxwx3wx-1031008.3 989.7 -2.4---------
2019-07-06 10:00:00 25.2 9.6 16.1--- 3730.0wxwxwxwxwx3wx--31009.5 990.7 -1.8---------
2019-07-06 09:00:00 24.4 10.0 15.9--- 4030.0wxwxwxwxwx3wx--31010.2 991.4 -1.5---------
2019-07-06 08:00:00 22.4 10.3 15.2--- 4630.0wx-wxwx2wx--21011.1 992.1 -1.0---------
2019-07-06 07:00:00 20.9 10.5 14.7--- 5130.0wx-wxwx2wx--21011.6 992.5 -0.7---------
2019-07-06 06:00:00 20.1 10.6 14.4 20.7 15.7 15 5430.0wx-wx2wx--21012.0 992.9 -0.6- 0.012----- 1.1
2019-07-06 05:00:00 17.3 11.7 13.7--- 7020.0wxwxwxwx1wx--11012.4 993.1 -0.5---------
2019-07-06 04:00:00 16.1 11.1 12.9--- 7220.0wxwxwxwx2wx--21012.6 993.2 -0.7---------
2019-07-06 03:00:00 15.8 11.3 12.9--- 7520.0wxwxwxwx0---01012.9 993.5 -1.0---------
2019-07-06 02:00:00 16.2 11.0 12.9--- 7120.0wxwxwxwx1wx--11013.0 993.6 -0.8---------
2019-07-06 01:00:00 16.9 10.8 13.1--- 6720.0wxwxwxwx1wx--11013.3 993.9 -0.2---------
2019-07-06 00:00:00 17.5 11.2 13.5--- 6720.0wxwxwxwx1wx--11013.8 994.5 0.3- 0.06------
1.1 ms

 

Print Friendly, PDF & Email